Wetterdaten: Juli 2015
Datum Temp Feuchte Luftdruck Regen Wind Richtung Sonnenschein UV Solar Windben
01.07.2015 23,8 C 50 % 1019,1 hPa 0,0 l/m 3,8 km/h SO 13,08 h 3,9 UV-I 491 W/m 12,5 km/h
02.07.2015 26,9 C 51 % 1019,0 hPa 0,0 l/m 4,8 km/h SO 13,08 h 3,8 UV-I 481 W/m 14,1 km/h
03.07.2015 25,1 C 68 % 1021,6 hPa 3,0 l/m 2,2 km/h N-NO 9,00 h 3,4 UV-I 389 W/m 6,4 km/h
04.07.2015 28,2 C 62 % 1017,1 hPa 0,0 l/m 1,8 km/h S 12,08 h 3,5 UV-I 452 W/m 6,0 km/h
05.07.2015 21,8 C 86 % 1014,0 hPa 20,0 l/m 3,6 km/h N 5,25 h 2,5 UV-I 265 W/m 14,5 km/h
06.07.2015 17,8 C 73 % 1018,9 hPa 0,0 l/m 0,9 km/h NW 8,08 h 3,3 UV-I 389 W/m 7,3 km/h
07.07.2015 21,9 C 68 % 1008,0 hPa 1,0 l/m 0,3 km/h S 8,00 h 3,7 UV-I 352 W/m 1,6 km/h
08.07.2015 13,7 C 88 % 1008,8 hPa 6,2 l/m 1,8 km/h S-SW 1,17 h 1,8 UV-I 163 W/m 14,9 km/h
09.07.2015 12,9 C 72 % 1018,6 hPa 10,2 l/m 7,4 km/h NW 3,58 h 2,3 UV-I 265 W/m 18,1 km/h
10.07.2015 13,6 C 75 % 1021,8 hPa 0,0 l/m 0,5 km/h N-NW 8,25 h 3,3 UV-I 377 W/m 1,6 km/h
11.07.2015 19,6 C 64 % 1015,5 hPa 0,0 l/m 2,3 km/h S-SO 10,25 h 3,1 UV-I 413 W/m 6,9 km/h
12.07.2015 15,6 C 85 % 1016,2 hPa 3,8 l/m 0,2 km/h S-SW 1,08 h 1,3 UV-I 147 W/m 5,6 km/h
13.07.2015 15,0 C 94 % 1014,6 hPa 11,8 l/m 0,4 km/h S 0,00 h 1,2 UV-I 113 W/m 6,0 km/h
14.07.2015 17,3 C 93 % 1014,9 hPa 17,4 l/m 2,1 km/h S-SW 1,08 h 2,1 UV-I 139 W/m 12,9 km/h
15.07.2015 18,1 C 87 % 1017,8 hPa 3,4 l/m 0,8 km/h W-NW 4,00 h 2,8 UV-I 284 W/m 6,4 km/h
16.07.2015 20,3 C 78 % 1016,8 hPa 0,0 l/m 1,4 km/h NW 7,50 h 3,2 UV-I 374 W/m 5,6 km/h
17.07.2015 23,4 C 66 % 1011,9 hPa 2,6 l/m 2,7 km/h S 10,25 h 3,9 UV-I 399 W/m 5,6 km/h
18.07.2015 18,9 C 73 % 1015,1 hPa 0,0 l/m 0,8 km/h NW 8,58 h 3,3 UV-I 383 W/m 2,8 km/h
19.07.2015 15,8 C 90 % 1009,5 hPa 22,2 l/m 0,6 km/h NW 0,58 h 1,8 UV-I 129 W/m 3,6 km/h
20.07.2015 18,8 C 86 % 1012,3 hPa 2,2 l/m 1,5 km/h S 6,33 h 3,1 UV-I 325 W/m 4,4 km/h
21.07.2015 21,5 C 81 % 1012,5 hPa 5,6 l/m 3,5 km/h S 2,83 h 3,0 UV-I 249 W/m 8,9 km/h
22.07.2015 20,4 C 75 % 1013,1 hPa 0,0 l/m 1,0 km/h W 5,67 h 3,0 UV-I 315 W/m 3,6 km/h
23.07.2015 17,1 C 77 % 1015,4 hPa 0,0 l/m 1,0 km/h NW 5,75 h 3,3 UV-I 350 W/m 4,0 km/h
24.07.2015 20,4 C 68 % 1008,7 hPa 0,0 l/m 0,8 km/h SO 5,92 h 3,1 UV-I 325 W/m 6,4 km/h
25.07.2015 14,0 C 91 % 1004,3 hPa 22,8 l/m 8,3 km/h S 3,25 h 2,0 UV-I 224 W/m 32,2 km/h
26.07.2015 14,5 C 73 % 1010,3 hPa 1,6 l/m 1,4 km/h S 6,08 h 3,2 UV-I 396 W/m 12,1 km/h
27.07.2015 14,9 C 88 % 1000,9 hPa 3,4 l/m 6,5 km/h S 1,08 h 1,5 UV-I 162 W/m 21,3 km/h
28.07.2015 14,0 C 77 % 1005,0 hPa 0,4 l/m 3,1 km/h S 1,25 h 1,4 UV-I 152 W/m 10,5 km/h
29.07.2015 12,0 C 82 % 1007,9 hPa 4,8 l/m 1,1 km/h S 3,25 h 1,9 UV-I 238 W/m 6,8 km/h
30.07.2015 12,6 C 83 % 1014,6 hPa 0,2 l/m 1,3 km/h NW 2,00 h 1,8 UV-I 197 W/m 7,6 km/h
31.07.2015 12,2 C 76 % 1018,3 hPa 0,0 l/m 0,6 km/h N-NW 7,50 h 2,8 UV-I 372 W/m 3,2 km/h
Min-Datum 10.07.15 17.07.15 25.07.15 19 Tage 01.07.15 - - - - 01.07.15
Min-Zeit 03:25 16:20 11:45 - 00:00 - - - - 00:00
Minimum 6,1 C 30 % 998,5 hPa - 0,0 km/h - - - - 0,0 km/h
Max-Datum 04.07.15 14.07.15 10.07.15 25.07.15 25.07.15 - 01.07.15 10.07.15 09.07.15 25.07.15
Max-Zeit 16:35 06:50 08:15 14:10 12:40 - 20:10 12:55 14:40 18:00
Maximum 36,2 C 97 % 1024,1 hPa 22,8 l/m 34,8 km/h
S
- 13,00 h 8,4 UV-I 1162 W/m 62,8 km/h
S
Durchschnitt 18,1 C 77 % 1013,6 hPa #142,6 l/m 2,2 km/h S #175:50 h 2,7 UV-I 300 W/m 8,8 km/h

Durchschnitt Minimum Temp.13,3 C
Durchschnitt Maximum Temp.23,4 C